Terminal Aerodrome Forecast
Issued by NWS

Home | Current Version | Previous Version | Text Only | Print | Product List | Glossary On
Versions: 1 2 3 4 5 6 7 8 9 10 11 12 13
378
FTUS44 KBMX 241720
TAFTCL
TAF
KTCL 241720Z 2418/2518 16012G24KT P6SM BKN060
     FM250000 15007KT P6SM BKN050
     FM251200 16010G15KT P6SM VCSH OVC040
     FM251500 18012G25KT 3SM RA VCTS OVC030CB=

USA.gov is the U.S. government's official web portal to all federal, state and local government web resources and services.